sensor_id;sensor_type;location;lat;lon;timestamp;P1;durP1;ratioP1;P2;durP2;ratioP2
8359;SDS011;4217;48.762;11.428;2022-10-17T00:05:51;7.57;;;7.17;;
8359;SDS011;4217;48.762;11.428;2022-10-17T00:15:54;7.13;;;6.53;;
8359;SDS011;4217;48.762;11.428;2022-10-17T00:25:56;7.50;;;6.90;;
8359;SDS011;4217;48.762;11.428;2022-10-17T00:36:06;7.77;;;7.17;;
8359;SDS011;4217;48.762;11.428;2022-10-17T00:46:10;7.23;;;6.70;;
8359;SDS011;4217;48.762;11.428;2022-10-17T00:56:13;6.50;;;6.03;;
8359;SDS011;4217;48.762;11.428;2022-10-17T01:06:17;6.87;;;6.37;;
8359;SDS011;4217;48.762;11.428;2022-10-17T01:26:48;6.30;;;5.73;;
8359;SDS011;4217;48.762;11.428;2022-10-17T01:37:25;6.60;;;5.20;;
8359;SDS011;4217;48.762;11.428;2022-10-17T01:47:31;7.13;;;6.53;;
8359;SDS011;4217;48.762;11.428;2022-10-17T01:57:39;6.23;;;5.83;;
8359;SDS011;4217;48.762;11.428;2022-10-17T02:07:45;7.30;;;6.60;;
8359;SDS011;4217;48.762;11.428;2022-10-17T02:28:20;6.73;;;6.13;;
8359;SDS011;4217;48.762;11.428;2022-10-17T02:38:30;8.00;;;7.07;;
8359;SDS011;4217;48.762;11.428;2022-10-17T02:48:41;13.20;;;12.50;;
8359;SDS011;4217;48.762;11.428;2022-10-17T02:58:49;20.57;;;19.40;;
8359;SDS011;4217;48.762;11.428;2022-10-17T03:08:55;17.30;;;16.50;;
8359;SDS011;4217;48.762;11.428;2022-10-17T03:18:56;10.70;;;9.83;;
8359;SDS011;4217;48.762;11.428;2022-10-17T03:28:58;10.23;;;9.40;;
8359;SDS011;4217;48.762;11.428;2022-10-17T03:39:02;9.27;;;8.40;;
8359;SDS011;4217;48.762;11.428;2022-10-17T03:49:04;9.70;;;8.90;;
8359;SDS011;4217;48.762;11.428;2022-10-17T03:59:08;8.03;;;7.43;;
8359;SDS011;4217;48.762;11.428;2022-10-17T04:09:17;12.00;;;10.80;;
8359;SDS011;4217;48.762;11.428;2022-10-17T04:19:31;10.47;;;9.67;;
8359;SDS011;4217;48.762;11.428;2022-10-17T04:29:32;12.10;;;11.03;;
8359;SDS011;4217;48.762;11.428;2022-10-17T04:39:42;11.90;;;10.93;;
8359;SDS011;4217;48.762;11.428;2022-10-17T04:49:44;13.37;;;12.27;;
8359;SDS011;4217;48.762;11.428;2022-10-17T04:59:48;12.53;;;11.53;;
8359;SDS011;4217;48.762;11.428;2022-10-17T05:10:01;13.10;;;11.87;;
8359;SDS011;4217;48.762;11.428;2022-10-17T05:20:04;10.50;;;9.63;;
8359;SDS011;4217;48.762;11.428;2022-10-17T05:30:08;11.33;;;10.33;;
8359;SDS011;4217;48.762;11.428;2022-10-17T05:40:11;11.47;;;10.47;;
8359;SDS011;4217;48.762;11.428;2022-10-17T05:50:13;11.47;;;10.33;;
8359;SDS011;4217;48.762;11.428;2022-10-17T06:00:32;15.07;;;13.63;;
8359;SDS011;4217;48.762;11.428;2022-10-17T06:10:34;16.57;;;14.87;;
8359;SDS011;4217;48.762;11.428;2022-10-17T06:20:36;33.90;;;17.40;;
8359;SDS011;4217;48.762;11.428;2022-10-17T06:30:41;26.33;;;15.67;;
8359;SDS011;4217;48.762;11.428;2022-10-17T06:40:42;27.53;;;15.50;;
8359;SDS011;4217;48.762;11.428;2022-10-17T06:50:44;26.13;;;10.30;;
8359;SDS011;4217;48.762;11.428;2022-10-17T07:00:50;48.43;;;12.03;;
8359;SDS011;4217;48.762;11.428;2022-10-17T07:10:53;32.77;;;10.70;;
8359;SDS011;4217;48.762;11.428;2022-10-17T07:20:55;40.07;;;11.33;;
8359;SDS011;4217;48.762;11.428;2022-10-17T07:31:02;9.77;;;8.73;;
8359;SDS011;4217;48.762;11.428;2022-10-17T07:41:06;16.87;;;9.73;;
8359;SDS011;4217;48.762;11.428;2022-10-17T07:51:09;12.33;;;8.33;;
8359;SDS011;4217;48.762;11.428;2022-10-17T08:01:10;21.03;;;9.27;;
8359;SDS011;4217;48.762;11.428;2022-10-17T08:11:16;8.40;;;7.90;;
8359;SDS011;4217;48.762;11.428;2022-10-17T08:21:18;7.73;;;6.90;;
8359;SDS011;4217;48.762;11.428;2022-10-17T08:31:19;9.40;;;7.87;;
8359;SDS011;4217;48.762;11.428;2022-10-17T08:41:38;7.40;;;6.90;;
8359;SDS011;4217;48.762;11.428;2022-10-17T08:51:51;6.10;;;5.70;;
8359;SDS011;4217;48.762;11.428;2022-10-17T09:22:23;5.07;;;4.73;;
8359;SDS011;4217;48.762;11.428;2022-10-17T09:32:28;6.15;;;5.85;;
8359;SDS011;4217;48.762;11.428;2022-10-17T09:42:30;4.50;;;4.20;;
8359;SDS011;4217;48.762;11.428;2022-10-17T09:52:33;4.90;;;4.50;;
8359;SDS011;4217;48.762;11.428;2022-10-17T10:02:37;4.43;;;4.15;;
8359;SDS011;4217;48.762;11.428;2022-10-17T10:12:41;6.93;;;6.35;;
8359;SDS011;4217;48.762;11.428;2022-10-17T10:23:11;4.65;;;4.45;;
8359;SDS011;4217;48.762;11.428;2022-10-17T10:33:18;5.07;;;4.22;;
8359;SDS011;4217;48.762;11.428;2022-10-17T10:43:35;3.72;;;3.50;;
8359;SDS011;4217;48.762;11.428;2022-10-17T11:04:11;6.85;;;5.95;;
8359;SDS011;4217;48.762;11.428;2022-10-17T11:24:58;17.92;;;16.92;;
8359;SDS011;4217;48.762;11.428;2022-10-17T11:35:06;14.57;;;13.97;;
8359;SDS011;4217;48.762;11.428;2022-10-17T11:45:17;13.90;;;13.30;;
8359;SDS011;4217;48.762;11.428;2022-10-17T11:55:23;14.50;;;13.83;;
8359;SDS011;4217;48.762;11.428;2022-10-17T12:26:25;14.50;;;13.90;;
8359;SDS011;4217;48.762;11.428;2022-10-17T12:57:18;14.00;;;13.40;;
8359;SDS011;4217;48.762;11.428;2022-10-17T13:07:23;14.40;;;13.50;;
8359;SDS011;4217;48.762;11.428;2022-10-17T13:17:26;15.47;;;14.67;;
8359;SDS011;4217;48.762;11.428;2022-10-17T13:27:32;14.80;;;14.10;;
8359;SDS011;4217;48.762;11.428;2022-10-17T13:37:35;15.03;;;14.43;;
8359;SDS011;4217;48.762;11.428;2022-10-17T13:47:37;14.87;;;14.17;;
8359;SDS011;4217;48.762;11.428;2022-10-17T13:57:39;9.93;;;9.33;;
8359;SDS011;4217;48.762;11.428;2022-10-17T14:07:42;11.27;;;10.77;;
8359;SDS011;4217;48.762;11.428;2022-10-17T14:18:23;5.13;;;4.83;;
8359;SDS011;4217;48.762;11.428;2022-10-17T14:28:33;5.00;;;4.70;;
8359;SDS011;4217;48.762;11.428;2022-10-17T14:38:35;5.20;;;4.80;;
8359;SDS011;4217;48.762;11.428;2022-10-17T14:48:37;4.07;;;3.87;;
8359;SDS011;4217;48.762;11.428;2022-10-17T14:58:39;4.57;;;4.27;;
8359;SDS011;4217;48.762;11.428;2022-10-17T15:08:40;5.37;;;4.90;;
8359;SDS011;4217;48.762;11.428;2022-10-17T15:18:47;5.53;;;5.13;;
8359;SDS011;4217;48.762;11.428;2022-10-17T15:28:49;6.23;;;5.83;;
8359;SDS011;4217;48.762;11.428;2022-10-17T15:38:52;4.80;;;4.30;;
8359;SDS011;4217;48.762;11.428;2022-10-17T15:48:56;4.80;;;4.40;;
8359;SDS011;4217;48.762;11.428;2022-10-17T15:59:04;5.40;;;4.90;;
8359;SDS011;4217;48.762;11.428;2022-10-17T16:09:08;4.30;;;3.90;;
8359;SDS011;4217;48.762;11.428;2022-10-17T16:19:10;6.67;;;6.10;;
8359;SDS011;4217;48.762;11.428;2022-10-17T16:29:11;6.73;;;5.20;;
8359;SDS011;4217;48.762;11.428;2022-10-17T16:39:13;10.97;;;10.47;;
8359;SDS011;4217;48.762;11.428;2022-10-17T16:49:14;8.83;;;8.33;;
8359;SDS011;4217;48.762;11.428;2022-10-17T16:59:18;11.30;;;10.50;;
8359;SDS011;4217;48.762;11.428;2022-10-17T17:09:19;8.77;;;8.00;;
8359;SDS011;4217;48.762;11.428;2022-10-17T17:19:21;9.00;;;8.40;;
8359;SDS011;4217;48.762;11.428;2022-10-17T17:29:23;8.33;;;7.73;;
8359;SDS011;4217;48.762;11.428;2022-10-17T17:39:25;8.77;;;8.13;;
8359;SDS011;4217;48.762;11.428;2022-10-17T17:49:26;6.97;;;6.37;;
8359;SDS011;4217;48.762;11.428;2022-10-17T17:59:28;7.63;;;6.83;;
8359;SDS011;4217;48.762;11.428;2022-10-17T18:09:31;7.47;;;6.60;;
8359;SDS011;4217;48.762;11.428;2022-10-17T18:19:32;7.97;;;7.27;;
8359;SDS011;4217;48.762;11.428;2022-10-17T18:29:34;8.20;;;7.70;;
8359;SDS011;4217;48.762;11.428;2022-10-17T18:39:36;9.50;;;8.53;;
8359;SDS011;4217;48.762;11.428;2022-10-17T18:49:38;12.53;;;11.73;;
8359;SDS011;4217;48.762;11.428;2022-10-17T18:59:39;9.63;;;8.83;;
8359;SDS011;4217;48.762;11.428;2022-10-17T19:09:41;14.03;;;13.03;;
8359;SDS011;4217;48.762;11.428;2022-10-17T19:19:43;13.93;;;12.93;;
8359;SDS011;4217;48.762;11.428;2022-10-17T19:29:44;13.23;;;12.13;;
8359;SDS011;4217;48.762;11.428;2022-10-17T19:39:47;13.00;;;12.07;;
8359;SDS011;4217;48.762;11.428;2022-10-17T19:49:49;11.50;;;10.60;;
8359;SDS011;4217;48.762;11.428;2022-10-17T19:59:50;12.30;;;11.30;;
8359;SDS011;4217;48.762;11.428;2022-10-17T20:09:56;12.40;;;11.43;;
8359;SDS011;4217;48.762;11.428;2022-10-17T20:19:57;12.40;;;11.33;;
8359;SDS011;4217;48.762;11.428;2022-10-17T20:29:59;13.80;;;12.50;;
8359;SDS011;4217;48.762;11.428;2022-10-17T20:40:03;13.87;;;12.97;;
8359;SDS011;4217;48.762;11.428;2022-10-17T20:50:25;13.60;;;12.70;;
8359;SDS011;4217;48.762;11.428;2022-10-17T21:00:27;14.53;;;13.43;;
8359;SDS011;4217;48.762;11.428;2022-10-17T21:10:28;14.30;;;13.30;;
8359;SDS011;4217;48.762;11.428;2022-10-17T21:20:35;13.40;;;12.40;;
8359;SDS011;4217;48.762;11.428;2022-10-17T21:30:37;13.67;;;12.77;;
8359;SDS011;4217;48.762;11.428;2022-10-17T21:40:39;13.70;;;12.80;;
8359;SDS011;4217;48.762;11.428;2022-10-17T21:50:40;13.90;;;13.00;;
8359;SDS011;4217;48.762;11.428;2022-10-17T22:00:42;13.87;;;12.77;;
8359;SDS011;4217;48.762;11.428;2022-10-17T22:10:43;13.03;;;12.13;;
8359;SDS011;4217;48.762;11.428;2022-10-17T22:20:45;12.20;;;11.37;;
8359;SDS011;4217;48.762;11.428;2022-10-17T22:30:46;13.80;;;12.80;;
8359;SDS011;4217;48.762;11.428;2022-10-17T22:40:48;13.33;;;12.30;;
8359;SDS011;4217;48.762;11.428;2022-10-17T22:50:50;13.93;;;12.93;;
8359;SDS011;4217;48.762;11.428;2022-10-17T23:00:52;14.70;;;13.73;;
8359;SDS011;4217;48.762;11.428;2022-10-17T23:10:54;13.23;;;12.43;;
8359;SDS011;4217;48.762;11.428;2022-10-17T23:20:56;14.00;;;12.93;;
8359;SDS011;4217;48.762;11.428;2022-10-17T23:30:58;13.90;;;13.00;;
8359;SDS011;4217;48.762;11.428;2022-10-17T23:41:08;14.33;;;13.27;;
8359;SDS011;4217;48.762;11.428;2022-10-17T23:51:09;13.60;;;12.70;;
